AirNav   Pilot Hours Calculator
 
 847 users online  

6LL2 Young Airport
Viola, Illinois, USA

GOING TO VIOLA?


FAA INFORMATION EFFECTIVE 01 DECEMBER 2022

Location

FAA Identifier: 6LL2
Lat/Long: 41-09-52.1290N 090-33-26.4820W
41-09.868817N 090-33.441367W
41.1644803,-90.5573561
(estimated)
Elevation: 760 ft. / 232 m (estimated)
Variation: 02E (1985)
From city: 3 miles SE of VIOLA, IL
Time zone: UTC -6 (UTC -5 during Daylight Saving Time)
Zip code: 61486

Airport Operations

Airport use: Private use. Permission required prior to landing
Activation date: 09/1968
Control tower: no
ARTCC: CHICAGO CENTER
FSS: KANKAKEE FLIGHT SERVICE STATION
Attendance: UNATNDD
Wind indicator: yes
Segmented circle: no

Airport Communications

WX AWOS-3 at GBG (15 nm SE): 118.975 (309-343-3711)
WX ASOS at MLI (17 nm N): 121.2 (309-732-8731)

Nearby radio navigation aids

VOR radial/distance  VOR name  Freq  Var
MZVr154/10.1MOLINE VOR/DME114.4005E
BRLr027/31.3BURLINGTON VOR/DME111.4005E
CVAr182/32.8DAVENPORT VORTAC113.8004E

 
NDB name  Hdg/Dist  Freq  Var  ID
MACOMB359/38.825101EJZY .--- --.. -.--

Airport Services

Airframe service: NONE
Powerplant service: NONE

Runway Information

Runway 9/27

Dimensions: 1600 x 100 ft. / 488 x 30 m
Surface: turf
RUNWAY 9  RUNWAY 27
Traffic pattern: leftleft
Obstructions: nonepline

Airport Ownership and Management from official FAA records

Ownership: Privately-owned
Owner: GERALD YOUNG
687 270 ST. S.E.
VIOLA, IL 61486
Phone 309-596-2500
Manager: GERALD YOUNG
687 270 ST S.E.
VIOLA, IL 61486
Phone 309-596-2500

Airport Operational Statistics

Aircraft based on the field: 3
Single engine airplanes: 3
    

Additional Remarks

FOR CD CTC CHICAGO ARTCC AT 630-906-8921.

Instrument Procedures

There are no published instrument procedures at 6LL2.

Some nearby airports with instrument procedures:

C66 - Monmouth Municipal Airport (14 nm S)
KGBG - Galesburg Municipal Airport (15 nm SE)
KMLI - Quad Cities International Airport (17 nm N)
KDVN - Davenport Municipal Airport (27 nm N)
KEZI - Kewanee Municipal Airport (27 nm E)
 
Loc | Ops | Rwys | IFR | FBO | Links
Com | Nav | Svcs | Stats | Notes
Area around 6LL2 (Young Airport)
 
Road maps at: MapQuest Bing Google
 
Aerial photo
No photo
 
Sectional chart

 
Airport distance calculator
Flying to Young Airport? Find the distance to fly.

From to 6LL2

Sunrise and sunset
Times for 07-Dec-2022
 Local
(UTC-6)
 Zulu
(UTC)
Morning civil twilight06:4412:44
Sunrise07:1513:15
Sunset16:3222:32
Evening civil twilight17:0323:03

Current date and time
Zulu (UTC)  07-Dec-2022 13:04:57
Local (UTC-6)  07-Dec-2022 07:04:57
 
METAR
KGBG 
15nm S 
071235Z AUTO 10004KT 1/4SM FG OVC002 00/00 A3019 RMK AO2 T10011001
KMLI 
17nm N 
071252Z 00000KT 1/4SM R09/1200V1400FT FG VV002 01/M01 A3019 RMK AO2 SLP230 I1001 T00061006
KDVN 
27nm N 
071252Z AUTO 00000KT 1/4SM FZFG VV002 M01/M02 A3021 RMK AO2 SLP234 T10061017
KMUT 
29nm NW 
071255Z AUTO 00000KT M1/4SM FZFG OVC002 M04/M04 A3020 RMK AO2
TAF
KMLI 
17nm N 
071134Z 0712/0812 VRB03KT 1/4SM FG VV002 TEMPO 0714/0716 1SM BR OVC003 FM071600 VRB04KT P6SM SCT040 FM080000 01006KT P6SM SCT250
NOTAMs
Click for the latest NOTAMs
NOTAMs are issued by the DoD/FAA and will open in a separate window not controlled by AirNav.

 

 
 

Would you like to see your business listed on this page?

 If your business provides an interesting product or service to pilots, flight crews, aircraft, or users of the Young Airport, you should consider listing it here.  To start the listing process, click on the button below
 
Add a business
 

Other Pages about Young Airport

Update a link
 
Copyright © AirNav, LLC. All rights reserved. Privacy Policy  Contact